sensor_id;sensor_type;location;lat;lon;timestamp;P1;durP1;ratioP1;P2;durP2;ratioP2
77868;SDS011;67231;59.144;37.934;2023-05-16T00:00:16;15.15;;;7.18;;
77868;SDS011;67231;59.144;37.934;2023-05-16T00:02:48;15.88;;;6.10;;
77868;SDS011;67231;59.144;37.934;2023-05-16T00:05:21;18.58;;;6.75;;
77868;SDS011;67231;59.144;37.934;2023-05-16T00:07:52;19.92;;;6.25;;
77868;SDS011;67231;59.144;37.934;2023-05-16T00:10:23;16.35;;;6.05;;
77868;SDS011;67231;59.144;37.934;2023-05-16T00:12:56;12.20;;;5.65;;
77868;SDS011;67231;59.144;37.934;2023-05-16T00:15:33;12.82;;;4.90;;
77868;SDS011;67231;59.144;37.934;2023-05-16T00:18:04;11.35;;;5.45;;
77868;SDS011;67231;59.144;37.934;2023-05-16T00:20:36;10.23;;;5.32;;
77868;SDS011;67231;59.144;37.934;2023-05-16T00:23:08;15.93;;;5.28;;
77868;SDS011;67231;59.144;37.934;2023-05-16T00:25:39;19.35;;;6.93;;
77868;SDS011;67231;59.144;37.934;2023-05-16T00:28:11;19.77;;;8.48;;
77868;SDS011;67231;59.144;37.934;2023-05-16T00:30:42;27.25;;;10.15;;
77868;SDS011;67231;59.144;37.934;2023-05-16T00:33:14;22.35;;;8.95;;
77868;SDS011;67231;59.144;37.934;2023-05-16T00:35:50;19.15;;;8.15;;
77868;SDS011;67231;59.144;37.934;2023-05-16T00:38:18;15.73;;;7.25;;
77868;SDS011;67231;59.144;37.934;2023-05-16T00:40:45;17.60;;;7.60;;
77868;SDS011;67231;59.144;37.934;2023-05-16T00:43:11;20.10;;;8.30;;
77868;SDS011;67231;59.144;37.934;2023-05-16T00:45:37;21.23;;;7.55;;
77868;SDS011;67231;59.144;37.934;2023-05-16T00:48:03;18.20;;;7.28;;
77868;SDS011;67231;59.144;37.934;2023-05-16T00:50:31;16.83;;;6.82;;
77868;SDS011;67231;59.144;37.934;2023-05-16T00:52:58;28.25;;;7.55;;
77868;SDS011;67231;59.144;37.934;2023-05-16T00:55:24;14.70;;;6.20;;
77868;SDS011;67231;59.144;37.934;2023-05-16T00:57:51;27.60;;;8.07;;
77868;SDS011;67231;59.144;37.934;2023-05-16T01:00:17;28.02;;;9.10;;
77868;SDS011;67231;59.144;37.934;2023-05-16T01:02:45;27.17;;;8.85;;
77868;SDS011;67231;59.144;37.934;2023-05-16T01:05:12;19.85;;;7.93;;
77868;SDS011;67231;59.144;37.934;2023-05-16T01:07:38;20.77;;;7.50;;
77868;SDS011;67231;59.144;37.934;2023-05-16T01:10:07;20.35;;;7.75;;
77868;SDS011;67231;59.144;37.934;2023-05-16T01:15:25;15.70;;;7.05;;
77868;SDS011;67231;59.144;37.934;2023-05-16T01:18:13;19.60;;;7.60;;
77868;SDS011;67231;59.144;37.934;2023-05-16T01:20:55;34.20;;;7.68;;
77868;SDS011;67231;59.144;37.934;2023-05-16T01:23:38;21.90;;;7.80;;
77868;SDS011;67231;59.144;37.934;2023-05-16T01:26:25;21.83;;;8.30;;
77868;SDS011;67231;59.144;37.934;2023-05-16T01:28:58;23.85;;;8.32;;
77868;SDS011;67231;59.144;37.934;2023-05-16T01:31:30;17.23;;;7.22;;
77868;SDS011;67231;59.144;37.934;2023-05-16T01:34:02;23.25;;;8.57;;
77868;SDS011;67231;59.144;37.934;2023-05-16T01:42:40;20.58;;;7.55;;
77868;SDS011;67231;59.144;37.934;2023-05-16T01:45:19;20.17;;;7.45;;
77868;SDS011;67231;59.144;37.934;2023-05-16T01:48:07;21.30;;;7.50;;
77868;SDS011;67231;59.144;37.934;2023-05-16T01:50:45;16.55;;;6.93;;
77868;SDS011;67231;59.144;37.934;2023-05-16T01:53:26;18.52;;;6.72;;
77868;SDS011;67231;59.144;37.934;2023-05-16T01:56:02;19.92;;;7.85;;
77868;SDS011;67231;59.144;37.934;2023-05-16T01:58:34;16.33;;;7.53;;
77868;SDS011;67231;59.144;37.934;2023-05-16T02:01:07;24.60;;;7.80;;
77868;SDS011;67231;59.144;37.934;2023-05-16T02:03:38;23.88;;;8.10;;
77868;SDS011;67231;59.144;37.934;2023-05-16T02:06:11;18.67;;;7.35;;
77868;SDS011;67231;59.144;37.934;2023-05-16T02:08:43;13.35;;;6.45;;
77868;SDS011;67231;59.144;37.934;2023-05-16T02:11:14;15.23;;;6.43;;
77868;SDS011;67231;59.144;37.934;2023-05-16T02:13:46;14.75;;;6.10;;
77868;SDS011;67231;59.144;37.934;2023-05-16T02:16:17;12.45;;;5.35;;
77868;SDS011;67231;59.144;37.934;2023-05-16T02:18:49;12.00;;;5.85;;
77868;SDS011;67231;59.144;37.934;2023-05-16T02:21:41;16.40;;;6.40;;
77868;SDS011;67231;59.144;37.934;2023-05-16T02:24:12;15.27;;;7.15;;
77868;SDS011;67231;59.144;37.934;2023-05-16T02:26:44;20.02;;;7.07;;
77868;SDS011;67231;59.144;37.934;2023-05-16T02:29:15;21.02;;;7.60;;
77868;SDS011;67231;59.144;37.934;2023-05-16T02:31:46;14.43;;;6.82;;
77868;SDS011;67231;59.144;37.934;2023-05-16T02:34:18;18.40;;;7.53;;
77868;SDS011;67231;59.144;37.934;2023-05-16T02:36:51;19.25;;;8.25;;
77868;SDS011;67231;59.144;37.934;2023-05-16T02:39:22;16.85;;;8.13;;
77868;SDS011;67231;59.144;37.934;2023-05-16T02:41:55;15.73;;;7.72;;
77868;SDS011;67231;59.144;37.934;2023-05-16T02:44:27;15.95;;;7.00;;
77868;SDS011;67231;59.144;37.934;2023-05-16T02:46:58;14.63;;;7.32;;
77868;SDS011;67231;59.144;37.934;2023-05-16T02:49:30;18.45;;;7.55;;
77868;SDS011;67231;59.144;37.934;2023-05-16T02:52:02;18.65;;;7.15;;
77868;SDS011;67231;59.144;37.934;2023-05-16T02:54:34;17.52;;;6.82;;
77868;SDS011;67231;59.144;37.934;2023-05-16T02:57:05;21.23;;;7.28;;
77868;SDS011;67231;59.144;37.934;2023-05-16T02:59:37;19.20;;;7.68;;
77868;SDS011;67231;59.144;37.934;2023-05-16T03:02:09;21.80;;;8.23;;
77868;SDS011;67231;59.144;37.934;2023-05-16T03:04:41;33.80;;;10.82;;
77868;SDS011;67231;59.144;37.934;2023-05-16T03:07:13;29.80;;;11.25;;
77868;SDS011;67231;59.144;37.934;2023-05-16T03:09:44;24.23;;;11.02;;
77868;SDS011;67231;59.144;37.934;2023-05-16T03:12:16;28.55;;;11.32;;
77868;SDS011;67231;59.144;37.934;2023-05-16T03:14:47;32.15;;;11.93;;
77868;SDS011;67231;59.144;37.934;2023-05-16T03:17:19;40.42;;;12.10;;
77868;SDS011;67231;59.144;37.934;2023-05-16T03:19:50;34.22;;;13.13;;
77868;SDS011;67231;59.144;37.934;2023-05-16T03:22:22;41.72;;;14.38;;
77868;SDS011;67231;59.144;37.934;2023-05-16T03:24:54;41.58;;;14.75;;
77868;SDS011;67231;59.144;37.934;2023-05-16T03:27:26;41.78;;;14.23;;
77868;SDS011;67231;59.144;37.934;2023-05-16T03:29:58;42.58;;;15.13;;
77868;SDS011;67231;59.144;37.934;2023-05-16T03:32:29;36.78;;;13.48;;
77868;SDS011;67231;59.144;37.934;2023-05-16T03:35:01;43.85;;;14.20;;
77868;SDS011;67231;59.144;37.934;2023-05-16T03:37:34;41.33;;;15.10;;
77868;SDS011;67231;59.144;37.934;2023-05-16T03:40:05;50.72;;;14.55;;
77868;SDS011;67231;59.144;37.934;2023-05-16T03:42:38;35.28;;;13.27;;
77868;SDS011;67231;59.144;37.934;2023-05-16T03:45:10;30.90;;;11.30;;
77868;SDS011;67231;59.144;37.934;2023-05-16T03:47:42;28.55;;;9.95;;
77868;SDS011;67231;59.144;37.934;2023-05-16T03:50:14;20.05;;;9.27;;
77868;SDS011;67231;59.144;37.934;2023-05-16T03:52:46;20.20;;;8.80;;
77868;SDS011;67231;59.144;37.934;2023-05-16T03:55:18;15.02;;;7.72;;
77868;SDS011;67231;59.144;37.934;2023-05-16T03:57:52;20.17;;;8.65;;
77868;SDS011;67231;59.144;37.934;2023-05-16T04:00:23;16.30;;;6.60;;
77868;SDS011;67231;59.144;37.934;2023-05-16T04:02:55;18.13;;;6.88;;
77868;SDS011;67231;59.144;37.934;2023-05-16T04:05:27;13.73;;;6.82;;
77868;SDS011;67231;59.144;37.934;2023-05-16T04:07:59;16.92;;;6.10;;
77868;SDS011;67231;59.144;37.934;2023-05-16T04:10:31;17.38;;;7.20;;
77868;SDS011;67231;59.144;37.934;2023-05-16T04:13:02;15.45;;;6.90;;
77868;SDS011;67231;59.144;37.934;2023-05-16T04:15:34;17.35;;;7.90;;
77868;SDS011;67231;59.144;37.934;2023-05-16T04:18:05;23.17;;;7.45;;
77868;SDS011;67231;59.144;37.934;2023-05-16T04:20:37;20.77;;;8.05;;
77868;SDS011;67231;59.144;37.934;2023-05-16T04:23:08;27.30;;;9.55;;
77868;SDS011;67231;59.144;37.934;2023-05-16T04:25:41;26.63;;;9.30;;
77868;SDS011;67231;59.144;37.934;2023-05-16T04:28:16;24.27;;;9.15;;
77868;SDS011;67231;59.144;37.934;2023-05-16T04:30:48;19.60;;;8.82;;
77868;SDS011;67231;59.144;37.934;2023-05-16T04:33:20;22.85;;;10.98;;
77868;SDS011;67231;59.144;37.934;2023-05-16T04:35:51;29.13;;;16.77;;
77868;SDS011;67231;59.144;37.934;2023-05-16T04:38:24;38.60;;;17.25;;
77868;SDS011;67231;59.144;37.934;2023-05-16T04:40:56;28.25;;;15.00;;
77868;SDS011;67231;59.144;37.934;2023-05-16T04:43:28;25.33;;;12.82;;
77868;SDS011;67231;59.144;37.934;2023-05-16T04:46:00;23.42;;;9.52;;
77868;SDS011;67231;59.144;37.934;2023-05-16T04:48:32;26.20;;;10.45;;
77868;SDS011;67231;59.144;37.934;2023-05-16T04:51:04;21.65;;;8.30;;
77868;SDS011;67231;59.144;37.934;2023-05-16T04:53:36;18.85;;;8.80;;
77868;SDS011;67231;59.144;37.934;2023-05-16T04:56:07;20.10;;;8.75;;
77868;SDS011;67231;59.144;37.934;2023-05-16T04:58:39;17.65;;;7.65;;
77868;SDS011;67231;59.144;37.934;2023-05-16T05:01:10;16.20;;;7.03;;
77868;SDS011;67231;59.144;37.934;2023-05-16T05:03:42;21.83;;;8.73;;
77868;SDS011;67231;59.144;37.934;2023-05-16T05:06:13;16.90;;;7.15;;
77868;SDS011;67231;59.144;37.934;2023-05-16T05:08:45;23.23;;;7.25;;
77868;SDS011;67231;59.144;37.934;2023-05-16T05:11:16;9.63;;;4.93;;
77868;SDS011;67231;59.144;37.934;2023-05-16T05:13:48;17.65;;;6.43;;
77868;SDS011;67231;59.144;37.934;2023-05-16T05:16:20;17.35;;;5.25;;
77868;SDS011;67231;59.144;37.934;2023-05-16T05:18:52;14.48;;;4.72;;
77868;SDS011;67231;59.144;37.934;2023-05-16T05:21:23;13.85;;;5.50;;
77868;SDS011;67231;59.144;37.934;2023-05-16T05:23:55;16.92;;;6.68;;
77868;SDS011;67231;59.144;37.934;2023-05-16T05:26:27;14.63;;;5.40;;
77868;SDS011;67231;59.144;37.934;2023-05-16T05:28:58;14.77;;;5.70;;
77868;SDS011;67231;59.144;37.934;2023-05-16T05:31:30;19.40;;;6.10;;
77868;SDS011;67231;59.144;37.934;2023-05-16T05:34:03;12.48;;;4.10;;
77868;SDS011;67231;59.144;37.934;2023-05-16T05:36:35;13.90;;;4.35;;
77868;SDS011;67231;59.144;37.934;2023-05-16T05:39:06;7.63;;;2.90;;
77868;SDS011;67231;59.144;37.934;2023-05-16T05:41:38;9.05;;;2.95;;
77868;SDS011;67231;59.144;37.934;2023-05-16T05:44:09;5.65;;;2.33;;
77868;SDS011;67231;59.144;37.934;2023-05-16T05:46:41;6.50;;;2.67;;
77868;SDS011;67231;59.144;37.934;2023-05-16T05:49:13;5.22;;;1.92;;
77868;SDS011;67231;59.144;37.934;2023-05-16T05:51:44;3.10;;;1.85;;
77868;SDS011;67231;59.144;37.934;2023-05-16T05:54:19;7.10;;;1.73;;
77868;SDS011;67231;59.144;37.934;2023-05-16T05:56:51;5.30;;;2.00;;
77868;SDS011;67231;59.144;37.934;2023-05-16T05:59:23;5.68;;;2.10;;
77868;SDS011;67231;59.144;37.934;2023-05-16T06:01:54;6.93;;;2.00;;
77868;SDS011;67231;59.144;37.934;2023-05-16T06:04:26;4.38;;;1.63;;
77868;SDS011;67231;59.144;37.934;2023-05-16T06:06:57;6.10;;;1.90;;
77868;SDS011;67231;59.144;37.934;2023-05-16T06:09:29;4.13;;;1.80;;
77868;SDS011;67231;59.144;37.934;2023-05-16T06:12:00;5.95;;;2.00;;
77868;SDS011;67231;59.144;37.934;2023-05-16T06:14:32;7.72;;;1.80;;
77868;SDS011;67231;59.144;37.934;2023-05-16T06:17:03;4.50;;;2.08;;
77868;SDS011;67231;59.144;37.934;2023-05-16T06:19:35;4.93;;;2.00;;
77868;SDS011;67231;59.144;37.934;2023-05-16T06:22:06;3.85;;;1.80;;
77868;SDS011;67231;59.144;37.934;2023-05-16T06:24:38;5.97;;;2.05;;
77868;SDS011;67231;59.144;37.934;2023-05-16T06:27:09;6.13;;;1.83;;
77868;SDS011;67231;59.144;37.934;2023-05-16T06:29:41;3.40;;;1.90;;
77868;SDS011;67231;59.144;37.934;2023-05-16T06:32:12;6.28;;;2.00;;
77868;SDS011;67231;59.144;37.934;2023-05-16T06:34:44;5.18;;;2.30;;
77868;SDS011;67231;59.144;37.934;2023-05-16T06:37:15;5.20;;;3.40;;
77868;SDS011;67231;59.144;37.934;2023-05-16T06:39:47;4.00;;;1.98;;
77868;SDS011;67231;59.144;37.934;2023-05-16T06:42:18;5.43;;;2.47;;
77868;SDS011;67231;59.144;37.934;2023-05-16T06:44:50;6.72;;;2.80;;
77868;SDS011;67231;59.144;37.934;2023-05-16T06:47:22;4.95;;;2.00;;
77868;SDS011;67231;59.144;37.934;2023-05-16T06:49:53;3.42;;;1.88;;
77868;SDS011;67231;59.144;37.934;2023-05-16T06:52:25;3.47;;;1.80;;
77868;SDS011;67231;59.144;37.934;2023-05-16T06:54:56;2.20;;;1.60;;
77868;SDS011;67231;59.144;37.934;2023-05-16T06:57:28;3.78;;;1.80;;
77868;SDS011;67231;59.144;37.934;2023-05-16T07:00:00;4.13;;;1.67;;
77868;SDS011;67231;59.144;37.934;2023-05-16T07:02:32;2.28;;;1.70;;
77868;SDS011;67231;59.144;37.934;2023-05-16T07:05:03;3.72;;;1.65;;
77868;SDS011;67231;59.144;37.934;2023-05-16T07:07:36;3.28;;;1.60;;
77868;SDS011;67231;59.144;37.934;2023-05-16T07:10:07;2.75;;;1.60;;
77868;SDS011;67231;59.144;37.934;2023-05-16T07:12:40;3.70;;;1.80;;
77868;SDS011;67231;59.144;37.934;2023-05-16T07:15:12;4.93;;;2.10;;
77868;SDS011;67231;59.144;37.934;2023-05-16T07:17:43;2.20;;;1.60;;
77868;SDS011;67231;59.144;37.934;2023-05-16T07:20:15;4.13;;;1.60;;
77868;SDS011;67231;59.144;37.934;2023-05-16T07:22:47;2.65;;;1.73;;
77868;SDS011;67231;59.144;37.934;2023-05-16T07:25:19;3.28;;;1.70;;
77868;SDS011;67231;59.144;37.934;2023-05-16T07:27:51;2.33;;;1.65;;
77868;SDS011;67231;59.144;37.934;2023-05-16T07:30:22;2.55;;;1.60;;
77868;SDS011;67231;59.144;37.934;2023-05-16T07:32:54;6.45;;;1.50;;
77868;SDS011;67231;59.144;37.934;2023-05-16T07:35:25;2.92;;;1.63;;
77868;SDS011;67231;59.144;37.934;2023-05-16T07:37:58;3.10;;;1.60;;
77868;SDS011;67231;59.144;37.934;2023-05-16T07:40:31;3.40;;;1.85;;
77868;SDS011;67231;59.144;37.934;2023-05-16T07:43:03;4.45;;;1.90;;
77868;SDS011;67231;59.144;37.934;2023-05-16T07:45:34;4.22;;;1.73;;
77868;SDS011;67231;59.144;37.934;2023-05-16T07:48:06;3.00;;;1.60;;
77868;SDS011;67231;59.144;37.934;2023-05-16T07:50:38;4.65;;;1.90;;
77868;SDS011;67231;59.144;37.934;2023-05-16T07:53:09;3.80;;;1.70;;
77868;SDS011;67231;59.144;37.934;2023-05-16T07:55:41;3.28;;;1.80;;
77868;SDS011;67231;59.144;37.934;2023-05-16T07:58:12;3.25;;;1.70;;
77868;SDS011;67231;59.144;37.934;2023-05-16T08:00:44;3.88;;;1.65;;
77868;SDS011;67231;59.144;37.934;2023-05-16T08:03:16;2.45;;;1.60;;
77868;SDS011;67231;59.144;37.934;2023-05-16T08:05:47;6.13;;;2.42;;
77868;SDS011;67231;59.144;37.934;2023-05-16T08:08:19;2.60;;;1.75;;
77868;SDS011;67231;59.144;37.934;2023-05-16T08:10:50;4.35;;;2.00;;
77868;SDS011;67231;59.144;37.934;2023-05-16T08:13:22;3.25;;;1.70;;
77868;SDS011;67231;59.144;37.934;2023-05-16T08:15:53;2.65;;;1.60;;
77868;SDS011;67231;59.144;37.934;2023-05-16T08:18:25;4.30;;;1.55;;
77868;SDS011;67231;59.144;37.934;2023-05-16T08:20:56;3.28;;;1.50;;
77868;SDS011;67231;59.144;37.934;2023-05-16T08:23:27;2.75;;;1.70;;
77868;SDS011;67231;59.144;37.934;2023-05-16T08:25:59;6.95;;;1.58;;
77868;SDS011;67231;59.144;37.934;2023-05-16T08:28:31;3.65;;;1.60;;
77868;SDS011;67231;59.144;37.934;2023-05-16T08:31:03;3.47;;;1.55;;
77868;SDS011;67231;59.144;37.934;2023-05-16T08:33:34;6.18;;;1.50;;
77868;SDS011;67231;59.144;37.934;2023-05-16T08:36:08;2.40;;;1.50;;
77868;SDS011;67231;59.144;37.934;2023-05-16T08:38:40;2.40;;;1.40;;
77868;SDS011;67231;59.144;37.934;2023-05-16T08:41:11;4.40;;;1.73;;
77868;SDS011;67231;59.144;37.934;2023-05-16T08:43:43;4.65;;;1.42;;
77868;SDS011;67231;59.144;37.934;2023-05-16T08:46:17;3.17;;;1.42;;
77868;SDS011;67231;59.144;37.934;2023-05-16T08:48:52;2.63;;;1.60;;
77868;SDS011;67231;59.144;37.934;2023-05-16T08:51:25;2.17;;;1.30;;
77868;SDS011;67231;59.144;37.934;2023-05-16T08:54:10;2.30;;;1.63;;
77868;SDS011;67231;59.144;37.934;2023-05-16T08:56:44;5.28;;;1.50;;
77868;SDS011;67231;59.144;37.934;2023-05-16T08:59:16;2.33;;;1.40;;
77868;SDS011;67231;59.144;37.934;2023-05-16T09:01:49;5.97;;;2.38;;
77868;SDS011;67231;59.144;37.934;2023-05-16T09:04:20;2.88;;;1.80;;
77868;SDS011;67231;59.144;37.934;2023-05-16T09:06:55;4.70;;;2.03;;
77868;SDS011;67231;59.144;37.934;2023-05-16T09:09:26;7.68;;;1.90;;
77868;SDS011;67231;59.144;37.934;2023-05-16T09:11:58;6.20;;;1.95;;
77868;SDS011;67231;59.144;37.934;2023-05-16T09:14:30;4.10;;;1.50;;
77868;SDS011;67231;59.144;37.934;2023-05-16T09:17:05;10.88;;;1.73;;
77868;SDS011;67231;59.144;37.934;2023-05-16T09:19:38;3.10;;;1.35;;
77868;SDS011;67231;59.144;37.934;2023-05-16T09:22:11;3.85;;;1.30;;
77868;SDS011;67231;59.144;37.934;2023-05-16T09:24:44;3.08;;;1.38;;
77868;SDS011;67231;59.144;37.934;2023-05-16T09:27:17;3.72;;;1.48;;
77868;SDS011;67231;59.144;37.934;2023-05-16T09:29:49;3.58;;;1.63;;
77868;SDS011;67231;59.144;37.934;2023-05-16T09:32:22;4.65;;;1.30;;
77868;SDS011;67231;59.144;37.934;2023-05-16T09:34:54;3.05;;;1.30;;
77868;SDS011;67231;59.144;37.934;2023-05-16T09:37:28;6.75;;;1.50;;
77868;SDS011;67231;59.144;37.934;2023-05-16T09:40:00;4.57;;;1.52;;
77868;SDS011;67231;59.144;37.934;2023-05-16T09:42:40;2.50;;;1.25;;
77868;SDS011;67231;59.144;37.934;2023-05-16T09:45:13;2.83;;;1.30;;
77868;SDS011;67231;59.144;37.934;2023-05-16T09:47:45;3.47;;;1.42;;
77868;SDS011;67231;59.144;37.934;2023-05-16T09:50:17;4.43;;;1.50;;
77868;SDS011;67231;59.144;37.934;2023-05-16T09:52:49;3.50;;;1.40;;
77868;SDS011;67231;59.144;37.934;2023-05-16T09:55:21;3.22;;;1.27;;
77868;SDS011;67231;59.144;37.934;2023-05-16T09:57:53;3.05;;;1.33;;
77868;SDS011;67231;59.144;37.934;2023-05-16T10:00:29;2.28;;;1.40;;
77868;SDS011;67231;59.144;37.934;2023-05-16T10:03:02;4.53;;;1.45;;
77868;SDS011;67231;59.144;37.934;2023-05-16T10:05:36;4.30;;;1.40;;
77868;SDS011;67231;59.144;37.934;2023-05-16T10:08:07;3.08;;;1.30;;
77868;SDS011;67231;59.144;37.934;2023-05-16T10:10:40;2.22;;;1.30;;
77868;SDS011;67231;59.144;37.934;2023-05-16T10:13:12;3.25;;;1.30;;
77868;SDS011;67231;59.144;37.934;2023-05-16T10:15:45;3.88;;;1.40;;
77868;SDS011;67231;59.144;37.934;2023-05-16T10:18:20;8.48;;;1.40;;
77868;SDS011;67231;59.144;37.934;2023-05-16T10:20:52;3.08;;;1.40;;
77868;SDS011;67231;59.144;37.934;2023-05-16T10:23:26;3.78;;;1.40;;
77868;SDS011;67231;59.144;37.934;2023-05-16T10:26:00;2.75;;;1.30;;
77868;SDS011;67231;59.144;37.934;2023-05-16T10:28:37;2.47;;;1.20;;
77868;SDS011;67231;59.144;37.934;2023-05-16T10:31:10;2.55;;;1.40;;
77868;SDS011;67231;59.144;37.934;2023-05-16T10:33:42;3.03;;;1.40;;
77868;SDS011;67231;59.144;37.934;2023-05-16T10:36:14;5.53;;;2.60;;
77868;SDS011;67231;59.144;37.934;2023-05-16T10:38:47;3.30;;;1.90;;
77868;SDS011;67231;59.144;37.934;2023-05-16T10:41:19;3.00;;;1.60;;
77868;SDS011;67231;59.144;37.934;2023-05-16T10:43:55;3.63;;;1.50;;
77868;SDS011;67231;59.144;37.934;2023-05-16T10:46:28;7.95;;;1.75;;
77868;SDS011;67231;59.144;37.934;2023-05-16T10:49:00;2.53;;;1.40;;
77868;SDS011;67231;59.144;37.934;2023-05-16T10:54:36;3.17;;;1.17;;
77868;SDS011;67231;59.144;37.934;2023-05-16T10:57:10;3.25;;;1.30;;
77868;SDS011;67231;59.144;37.934;2023-05-16T10:59:47;4.20;;;1.40;;
77868;SDS011;67231;59.144;37.934;2023-05-16T11:02:21;2.65;;;1.33;;
77868;SDS011;67231;59.144;37.934;2023-05-16T11:04:55;4.25;;;1.20;;
77868;SDS011;67231;59.144;37.934;2023-05-16T11:07:31;3.80;;;1.40;;
77868;SDS011;67231;59.144;37.934;2023-05-16T11:10:05;6.28;;;1.30;;
77868;SDS011;67231;59.144;37.934;2023-05-16T11:15:25;1.80;;;1.20;;
77868;SDS011;67231;59.144;37.934;2023-05-16T11:18:08;3.78;;;1.30;;
77868;SDS011;67231;59.144;37.934;2023-05-16T11:20:44;3.90;;;1.20;;
77868;SDS011;67231;59.144;37.934;2023-05-16T11:25:51;5.95;;;1.13;;
77868;SDS011;67231;59.144;37.934;2023-05-16T11:28:24;3.03;;;1.42;;
77868;SDS011;67231;59.144;37.934;2023-05-16T11:30:57;5.03;;;1.20;;
77868;SDS011;67231;59.144;37.934;2023-05-16T11:33:29;2.65;;;1.30;;
77868;SDS011;67231;59.144;37.934;2023-05-16T11:36:06;8.63;;;1.50;;
77868;SDS011;67231;59.144;37.934;2023-05-16T11:38:38;2.10;;;0.95;;
77868;SDS011;67231;59.144;37.934;2023-05-16T11:41:13;1.90;;;1.30;;
77868;SDS011;67231;59.144;37.934;2023-05-16T11:43:47;6.13;;;1.48;;
77868;SDS011;67231;59.144;37.934;2023-05-16T11:46:19;3.08;;;0.98;;
77868;SDS011;67231;59.144;37.934;2023-05-16T11:48:50;4.13;;;1.38;;
77868;SDS011;67231;59.144;37.934;2023-05-16T11:51:22;4.50;;;1.48;;
77868;SDS011;67231;59.144;37.934;2023-05-16T11:53:53;4.47;;;1.45;;
77868;SDS011;67231;59.144;37.934;2023-05-16T11:56:25;4.90;;;1.48;;
77868;SDS011;67231;59.144;37.934;2023-05-16T11:59:00;13.20;;;2.17;;
77868;SDS011;67231;59.144;37.934;2023-05-16T12:01:36;8.65;;;1.70;;
77868;SDS011;67231;59.144;37.934;2023-05-16T12:04:09;8.35;;;2.35;;
77868;SDS011;67231;59.144;37.934;2023-05-16T12:06:42;6.40;;;2.00;;
77868;SDS011;67231;59.144;37.934;2023-05-16T12:09:18;8.27;;;1.80;;
77868;SDS011;67231;59.144;37.934;2023-05-16T12:11:49;6.30;;;1.70;;
77868;SDS011;67231;59.144;37.934;2023-05-16T12:14:22;3.35;;;1.42;;
77868;SDS011;67231;59.144;37.934;2023-05-16T12:16:54;5.85;;;1.63;;
77868;SDS011;67231;59.144;37.934;2023-05-16T12:19:26;5.50;;;1.50;;
77868;SDS011;67231;59.144;37.934;2023-05-16T12:21:57;4.63;;;1.50;;
77868;SDS011;67231;59.144;37.934;2023-05-16T12:24:29;5.70;;;1.50;;
77868;SDS011;67231;59.144;37.934;2023-05-16T12:27:01;5.50;;;1.63;;
77868;SDS011;67231;59.144;37.934;2023-05-16T12:29:33;5.70;;;1.60;;
77868;SDS011;67231;59.144;37.934;2023-05-16T12:32:06;6.40;;;2.15;;
77868;SDS011;67231;59.144;37.934;2023-05-16T12:34:38;2.92;;;1.60;;
77868;SDS011;67231;59.144;37.934;2023-05-16T12:37:09;3.08;;;1.40;;
77868;SDS011;67231;59.144;37.934;2023-05-16T12:39:41;3.33;;;1.48;;
77868;SDS011;67231;59.144;37.934;2023-05-16T12:42:13;4.60;;;1.70;;
77868;SDS011;67231;59.144;37.934;2023-05-16T12:44:44;3.78;;;1.63;;
77868;SDS011;67231;59.144;37.934;2023-05-16T12:47:16;5.47;;;1.70;;
77868;SDS011;67231;59.144;37.934;2023-05-16T12:49:48;3.83;;;1.40;;
77868;SDS011;67231;59.144;37.934;2023-05-16T12:52:22;2.85;;;1.20;;
77868;SDS011;67231;59.144;37.934;2023-05-16T12:54:54;4.13;;;1.75;;
77868;SDS011;67231;59.144;37.934;2023-05-16T12:57:25;2.83;;;1.40;;
77868;SDS011;67231;59.144;37.934;2023-05-16T12:59:58;4.30;;;1.40;;
77868;SDS011;67231;59.144;37.934;2023-05-16T13:02:30;4.20;;;1.52;;
77868;SDS011;67231;59.144;37.934;2023-05-16T13:05:01;3.08;;;1.40;;
77868;SDS011;67231;59.144;37.934;2023-05-16T13:07:33;5.35;;;1.60;;
77868;SDS011;67231;59.144;37.934;2023-05-16T13:10:07;3.80;;;1.40;;
77868;SDS011;67231;59.144;37.934;2023-05-16T13:12:43;4.45;;;1.30;;
77868;SDS011;67231;59.144;37.934;2023-05-16T13:15:15;8.55;;;1.95;;
77868;SDS011;67231;59.144;37.934;2023-05-16T13:17:47;5.03;;;1.65;;
77868;SDS011;67231;59.144;37.934;2023-05-16T13:20:19;4.20;;;1.33;;
77868;SDS011;67231;59.144;37.934;2023-05-16T13:22:51;3.67;;;1.33;;
77868;SDS011;67231;59.144;37.934;2023-05-16T13:25:22;5.03;;;1.35;;
77868;SDS011;67231;59.144;37.934;2023-05-16T13:27:54;2.60;;;1.50;;
77868;SDS011;67231;59.144;37.934;2023-05-16T13:30:26;3.10;;;1.20;;
77868;SDS011;67231;59.144;37.934;2023-05-16T13:32:58;6.75;;;1.65;;
77868;SDS011;67231;59.144;37.934;2023-05-16T13:35:30;4.78;;;1.50;;
77868;SDS011;67231;59.144;37.934;2023-05-16T13:38:01;2.83;;;1.42;;
77868;SDS011;67231;59.144;37.934;2023-05-16T13:43:08;3.85;;;1.50;;
77868;SDS011;67231;59.144;37.934;2023-05-16T13:45:40;4.95;;;2.55;;
77868;SDS011;67231;59.144;37.934;2023-05-16T13:48:11;4.70;;;1.60;;
77868;SDS011;67231;59.144;37.934;2023-05-16T13:50:43;4.70;;;1.80;;
77868;SDS011;67231;59.144;37.934;2023-05-16T13:53:15;6.82;;;2.45;;
77868;SDS011;67231;59.144;37.934;2023-05-16T13:55:46;7.93;;;1.80;;
77868;SDS011;67231;59.144;37.934;2023-05-16T13:58:18;6.35;;;2.13;;
77868;SDS011;67231;59.144;37.934;2023-05-16T14:00:49;3.88;;;1.48;;
77868;SDS011;67231;59.144;37.934;2023-05-16T14:03:21;2.97;;;1.30;;
77868;SDS011;67231;59.144;37.934;2023-05-16T14:05:53;4.80;;;1.80;;
77868;SDS011;67231;59.144;37.934;2023-05-16T14:08:24;4.57;;;1.65;;
77868;SDS011;67231;59.144;37.934;2023-05-16T14:10:56;5.13;;;1.70;;
77868;SDS011;67231;59.144;37.934;2023-05-16T14:13:27;2.00;;;1.35;;
77868;SDS011;67231;59.144;37.934;2023-05-16T14:15:58;4.32;;;1.50;;
77868;SDS011;67231;59.144;37.934;2023-05-16T14:18:30;3.88;;;1.30;;
77868;SDS011;67231;59.144;37.934;2023-05-16T14:21:02;3.92;;;1.60;;
77868;SDS011;67231;59.144;37.934;2023-05-16T14:23:33;2.97;;;1.40;;
77868;SDS011;67231;59.144;37.934;2023-05-16T14:26:05;2.38;;;1.30;;
77868;SDS011;67231;59.144;37.934;2023-05-16T14:28:37;2.00;;;1.40;;
77868;SDS011;67231;59.144;37.934;2023-05-16T14:31:08;4.57;;;1.25;;
77868;SDS011;67231;59.144;37.934;2023-05-16T14:33:40;4.35;;;1.40;;
77868;SDS011;67231;59.144;37.934;2023-05-16T14:36:13;5.22;;;1.88;;
77868;SDS011;67231;59.144;37.934;2023-05-16T14:38:44;3.33;;;1.40;;
77868;SDS011;67231;59.144;37.934;2023-05-16T14:41:16;2.55;;;1.30;;
77868;SDS011;67231;59.144;37.934;2023-05-16T14:43:47;3.03;;;1.05;;
77868;SDS011;67231;59.144;37.934;2023-05-16T14:46:19;3.95;;;1.58;;
77868;SDS011;67231;59.144;37.934;2023-05-16T14:48:50;4.75;;;1.45;;
77868;SDS011;67231;59.144;37.934;2023-05-16T14:51:22;6.25;;;1.50;;
77868;SDS011;67231;59.144;37.934;2023-05-16T14:53:53;5.30;;;1.83;;
77868;SDS011;67231;59.144;37.934;2023-05-16T14:56:25;4.03;;;1.58;;
77868;SDS011;67231;59.144;37.934;2023-05-16T14:58:58;2.28;;;1.40;;
77868;SDS011;67231;59.144;37.934;2023-05-16T15:01:30;4.55;;;1.73;;
77868;SDS011;67231;59.144;37.934;2023-05-16T15:04:01;5.13;;;1.58;;
77868;SDS011;67231;59.144;37.934;2023-05-16T15:06:33;3.67;;;1.40;;
77868;SDS011;67231;59.144;37.934;2023-05-16T15:09:05;4.05;;;1.50;;
77868;SDS011;67231;59.144;37.934;2023-05-16T15:11:36;3.67;;;1.40;;
77868;SDS011;67231;59.144;37.934;2023-05-16T15:14:08;4.45;;;1.40;;
77868;SDS011;67231;59.144;37.934;2023-05-16T15:16:39;2.25;;;1.40;;